Gabbs, Nevada
Current Conditions -  °F | °C
As of 9:56 AM on Wednesday 28 Jan 2015 (Local Time) from KNFL Reporting Station
Scattered Clouds Scattered Clouds  
Wind Chill: 43°   Ceiling: Unl
Heat Index: 43°   Visibility: 10mi
Dew Point: 38°   Wind: 0mph
Humidity: 82%   Direction: NA
Pressure: 30.35"   Gusts: NA
Location:  38.87°N, 117.92°W
Report Text: KNFL 281756Z 00000KT 10SM FEW140 SCT270 06/03 A3035 RMK AO2 SLP234 T00610033 10061 20000 51006
Loading
Personal Weather Stations






























Interactive Weather Map New forecast layout! Learn more

10-Day Weather Forecast

Advertisements
Track Severe Weather on mobile